HK36E SPZO-SLLP
Flight info
| Callsign | HK36E |
|---|---|
| Flight time | 1h 5m |
| Altitude | 31000 |
| Route | TAUJA3 ILMOX JUL ELAK1A |
| Aircraft | BE20/M-SDFGRWY/LB1 |
Departure
| Time | 2026-05-05 20:54 |
|---|---|
| Airport | Alejandro Velasco Astete International Airport (SPZO) |
Arrival
| Time | 2026-05-05 21:59 |
|---|---|
| Airport | El Alto International Airport (SLLP) |
| Time | Latitude | Longitude | Altitude | Speed | Heading |
|---|---|---|---|---|---|
| 2026-05-05 20:46 | -13.53714 | -71.93950 | 10768 ft | 0 kts | 181° |
| 2026-05-05 20:46 | -13.53715 | -71.93960 | 10769 ft | 4 kts | 326° |
| 2026-05-05 20:46 | -13.53679 | -71.93979 | 10769 ft | 3 kts | 330° |
| 2026-05-05 20:47 | -13.53660 | -71.94012 | 10771 ft | 9 kts | 287° |
| 2026-05-05 20:47 | -13.53643 | -71.94082 | 10774 ft | 8 kts | 278° |
| 2026-05-05 20:47 | -13.53661 | -71.94150 | 10778 ft | 12 kts | 246° |
| 2026-05-05 20:47 | -13.53672 | -71.94253 | 10784 ft | 17 kts | 277° |
| 2026-05-05 20:48 | -13.53666 | -71.94313 | 10787 ft | 0 kts | 276° |
| 2026-05-05 20:50 | -13.53666 | -71.94315 | 10787 ft | 1 kts | 276° |
| 2026-05-05 20:50 | -13.53660 | -71.94373 | 10790 ft | 15 kts | 275° |
| 2026-05-05 20:50 | -13.53648 | -71.94499 | 10797 ft | 17 kts | 276° |
| 2026-05-05 20:50 | -13.53632 | -71.94648 | 10806 ft | 24 kts | 276° |
| 2026-05-05 20:51 | -13.53620 | -71.94766 | 10812 ft | 13 kts | 276° |
| 2026-05-05 20:51 | -13.53609 | -71.94879 | 10817 ft | 19 kts | 276° |
| 2026-05-05 20:51 | -13.53596 | -71.94997 | 10823 ft | 7 kts | 277° |
| 2026-05-05 20:51 | -13.53593 | -71.95025 | 10825 ft | 6 kts | 277° |
| 2026-05-05 20:52 | -13.53589 | -71.95085 | 10828 ft | 11 kts | 276° |
| 2026-05-05 20:52 | -13.53578 | -71.95187 | 10833 ft | 18 kts | 276° |
| 2026-05-05 20:52 | -13.53563 | -71.95333 | 10840 ft | 23 kts | 277° |
| 2026-05-05 20:52 | -13.53527 | -71.95434 | 10847 ft | 8 kts | 358° |
| 2026-05-05 20:53 | -13.53442 | -71.95423 | 10847 ft | 15 kts | 12° |
| 2026-05-05 20:53 | -13.53418 | -71.95389 | 10844 ft | 1 kts | 100° |
| 2026-05-05 20:53 | -13.53426 | -71.95322 | 10841 ft | 29 kts | 95° |
| 2026-05-05 20:53 | -13.53469 | -71.94899 | 10821 ft | 88 kts | 95° |
| 2026-05-05 20:54 | -13.53538 | -71.94102 | 10858 ft | 129 kts | 93° |
| 2026-05-05 20:54 | -13.53645 | -71.93114 | 11218 ft | 147 kts | 93° |
| 2026-05-05 20:54 | -13.53733 | -71.91994 | 11662 ft | 163 kts | 89° |
| 2026-05-05 20:54 | -13.53836 | -71.90725 | 11955 ft | 188 kts | 94° |
| 2026-05-05 20:55 | -13.54039 | -71.89435 | 12625 ft | 184 kts | 100° |
| 2026-05-05 20:55 | -13.54449 | -71.88157 | 13468 ft | 190 kts | 112° |
| 2026-05-05 20:55 | -13.55035 | -71.86939 | 13942 ft | 190 kts | 115° |
| 2026-05-05 20:55 | -13.55541 | -71.85705 | 14328 ft | 185 kts | 105° |
| 2026-05-05 20:56 | -13.55962 | -71.84452 | 14803 ft | 185 kts | 108° |
| 2026-05-05 20:56 | -13.56394 | -71.83213 | 15306 ft | 183 kts | 106° |
| 2026-05-05 20:56 | -13.56832 | -71.81987 | 15784 ft | 182 kts | 109° |
| 2026-05-05 20:56 | -13.57312 | -71.80779 | 16285 ft | 181 kts | 109° |
| 2026-05-05 20:57 | -13.57797 | -71.79580 | 16758 ft | 185 kts | 114° |
| 2026-05-05 20:57 | -13.58617 | -71.78549 | 17154 ft | 189 kts | 136° |
| 2026-05-05 20:57 | -13.59608 | -71.77634 | 17566 ft | 194 kts | 135° |
| 2026-05-05 20:57 | -13.60620 | -71.76692 | 17982 ft | 199 kts | 135° |
| 2026-05-05 20:58 | -13.61657 | -71.75731 | 18405 ft | 203 kts | 135° |
| 2026-05-05 20:58 | -13.62712 | -71.74751 | 18796 ft | 205 kts | 135° |
| 2026-05-05 20:58 | -13.63776 | -71.73764 | 19154 ft | 207 kts | 134° |
| 2026-05-05 20:58 | -13.64850 | -71.72767 | 19519 ft | 209 kts | 136° |
| 2026-05-05 20:59 | -13.65915 | -71.71779 | 19880 ft | 210 kts | 134° |
| 2026-05-05 20:59 | -13.67002 | -71.70769 | 20242 ft | 211 kts | 135° |
| 2026-05-05 20:59 | -13.68098 | -71.69751 | 20626 ft | 213 kts | 135° |
| 2026-05-05 20:59 | -13.69206 | -71.68721 | 21007 ft | 218 kts | 134° |
| 2026-05-05 21:00 | -13.70342 | -71.67666 | 21400 ft | 223 kts | 134° |
| 2026-05-05 21:00 | -13.71505 | -71.66587 | 21798 ft | 226 kts | 134° |
| 2026-05-05 21:00 | -13.72676 | -71.65500 | 22194 ft | 227 kts | 134° |
| 2026-05-05 21:00 | -13.73851 | -71.64406 | 22599 ft | 229 kts | 134° |
| 2026-05-05 21:01 | -13.75038 | -71.63302 | 23022 ft | 231 kts | 134° |
| 2026-05-05 21:01 | -13.76235 | -71.62190 | 23459 ft | 232 kts | 134° |
| 2026-05-05 21:01 | -13.77435 | -71.61075 | 23853 ft | 233 kts | 134° |
| 2026-05-05 21:01 | -13.78639 | -71.59955 | 24216 ft | 233 kts | 134° |
| 2026-05-05 21:02 | -13.79837 | -71.58842 | 24570 ft | 231 kts | 134° |
| 2026-05-05 21:02 | -13.81030 | -71.57732 | 24943 ft | 232 kts | 134° |
| 2026-05-05 21:02 | -13.82221 | -71.56624 | 25312 ft | 229 kts | 134° |
| 2026-05-05 21:02 | -13.83398 | -71.55531 | 25737 ft | 228 kts | 134° |
| 2026-05-05 21:03 | -13.84571 | -71.54437 | 26115 ft | 227 kts | 134° |
| 2026-05-05 21:03 | -13.85738 | -71.53351 | 26504 ft | 225 kts | 135° |
| 2026-05-05 21:03 | -13.86898 | -71.52272 | 26901 ft | 224 kts | 135° |
| 2026-05-05 21:03 | -13.88048 | -71.51201 | 27298 ft | 222 kts | 135° |
| 2026-05-05 21:04 | -13.89184 | -71.50143 | 27699 ft | 218 kts | 135° |
| 2026-05-05 21:04 | -13.90301 | -71.49103 | 28107 ft | 215 kts | 135° |
| 2026-05-05 21:04 | -13.91403 | -71.48077 | 28515 ft | 213 kts | 135° |
| 2026-05-05 21:04 | -13.92492 | -71.47063 | 28911 ft | 210 kts | 135° |
| 2026-05-05 21:05 | -13.93550 | -71.46077 | 29313 ft | 207 kts | 135° |
| 2026-05-05 21:05 | -13.94651 | -71.45049 | 29511 ft | 215 kts | 135° |
| 2026-05-05 21:05 | -13.95787 | -71.43990 | 29608 ft | 227 kts | 135° |
| 2026-05-05 21:05 | -13.96976 | -71.42882 | 29672 ft | 239 kts | 136° |
| 2026-05-05 21:06 | -13.98238 | -71.41705 | 29738 ft | 250 kts | 136° |
| 2026-05-05 21:06 | -13.99547 | -71.40488 | 29805 ft | 258 kts | 136° |
| 2026-05-05 21:06 | -14.00895 | -71.39231 | 29866 ft | 265 kts | 137° |
| 2026-05-05 21:06 | -14.02274 | -71.37944 | 29914 ft | 270 kts | 136° |
| 2026-05-05 21:07 | -14.03678 | -71.36635 | 29959 ft | 274 kts | 137° |
| 2026-05-05 21:07 | -14.05097 | -71.35312 | 29994 ft | 277 kts | 136° |
| 2026-05-05 21:07 | -14.06534 | -71.33971 | 30025 ft | 280 kts | 136° |
| 2026-05-05 21:07 | -14.07982 | -71.32622 | 30047 ft | 282 kts | 136° |
| 2026-05-05 21:08 | -14.09439 | -71.31260 | 30056 ft | 284 kts | 137° |
| 2026-05-05 21:08 | -14.10911 | -71.29885 | 30052 ft | 287 kts | 137° |
| 2026-05-05 21:08 | -14.12394 | -71.28501 | 30067 ft | 288 kts | 136° |
| 2026-05-05 21:08 | -14.13880 | -71.27112 | 30071 ft | 289 kts | 137° |
| 2026-05-05 21:09 | -14.15374 | -71.25718 | 30070 ft | 291 kts | 136° |
| 2026-05-05 21:09 | -14.16874 | -71.24318 | 30070 ft | 291 kts | 137° |
| 2026-05-05 21:09 | -14.18377 | -71.22912 | 30046 ft | 292 kts | 136° |
| 2026-05-05 21:09 | -14.19882 | -71.21505 | 30047 ft | 292 kts | 136° |
| 2026-05-05 21:10 | -14.21389 | -71.20098 | 30047 ft | 292 kts | 136° |
| 2026-05-05 21:10 | -14.22892 | -71.18692 | 30049 ft | 292 kts | 136° |
| 2026-05-05 21:10 | -14.24398 | -71.17284 | 30048 ft | 292 kts | 136° |
| 2026-05-05 21:10 | -14.25901 | -71.15878 | 30048 ft | 292 kts | 136° |
| 2026-05-05 21:11 | -14.27407 | -71.14470 | 30070 ft | 292 kts | 136° |
| 2026-05-05 21:11 | -14.28912 | -71.13061 | 30067 ft | 293 kts | 136° |
| 2026-05-05 21:11 | -14.30421 | -71.11649 | 30070 ft | 293 kts | 136° |
| 2026-05-05 21:11 | -14.31930 | -71.10237 | 30071 ft | 293 kts | 136° |
| 2026-05-05 21:12 | -14.33440 | -71.08824 | 30072 ft | 293 kts | 136° |
| 2026-05-05 21:12 | -14.34928 | -71.07430 | 30070 ft | 293 kts | 136° |
| 2026-05-05 21:12 | -14.36438 | -71.06016 | 30074 ft | 293 kts | 136° |
| 2026-05-05 21:12 | -14.37946 | -71.04603 | 30073 ft | 293 kts | 136° |
| 2026-05-05 21:13 | -14.39452 | -71.03193 | 30074 ft | 292 kts | 136° |
| 2026-05-05 21:13 | -14.40957 | -71.01782 | 30068 ft | 292 kts | 136° |
| 2026-05-05 21:13 | -14.42462 | -71.00372 | 30075 ft | 293 kts | 136° |
| 2026-05-05 21:13 | -14.43969 | -70.98960 | 30071 ft | 292 kts | 136° |
| 2026-05-05 21:14 | -14.45473 | -70.97550 | 30070 ft | 292 kts | 136° |
| 2026-05-05 21:14 | -14.46976 | -70.96140 | 30071 ft | 292 kts | 136° |
| 2026-05-05 21:14 | -14.48478 | -70.94731 | 30068 ft | 292 kts | 136° |
| 2026-05-05 21:14 | -14.49978 | -70.93324 | 30069 ft | 291 kts | 136° |
| 2026-05-05 21:15 | -14.51476 | -70.91918 | 30068 ft | 291 kts | 136° |
| 2026-05-05 21:15 | -14.52975 | -70.90511 | 30068 ft | 291 kts | 136° |
| 2026-05-05 21:15 | -14.54474 | -70.89105 | 30068 ft | 291 kts | 136° |
| 2026-05-05 21:15 | -14.55972 | -70.87698 | 30058 ft | 291 kts | 135° |
| 2026-05-05 21:16 | -14.57473 | -70.86289 | 30056 ft | 292 kts | 135° |
| 2026-05-05 21:16 | -14.58978 | -70.84875 | 30054 ft | 293 kts | 135° |
| 2026-05-05 21:16 | -14.60554 | -70.83554 | 30056 ft | 292 kts | 141° |
| 2026-05-05 21:16 | -14.62173 | -70.82286 | 30057 ft | 292 kts | 140° |
| 2026-05-05 21:17 | -14.63791 | -70.81008 | 30058 ft | 293 kts | 140° |
| 2026-05-05 21:17 | -14.65409 | -70.79726 | 30061 ft | 293 kts | 141° |
| 2026-05-05 21:17 | -14.67025 | -70.78449 | 30060 ft | 293 kts | 141° |
| 2026-05-05 21:17 | -14.68644 | -70.77170 | 30052 ft | 293 kts | 140° |
| 2026-05-05 21:18 | -14.70263 | -70.75890 | 30049 ft | 293 kts | 141° |
| 2026-05-05 21:18 | -14.71880 | -70.74613 | 30052 ft | 293 kts | 140° |
| 2026-05-05 21:18 | -14.73499 | -70.73331 | 30037 ft | 293 kts | 140° |
| 2026-05-05 21:18 | -14.75117 | -70.72052 | 30042 ft | 293 kts | 140° |
| 2026-05-05 21:19 | -14.76738 | -70.70770 | 30040 ft | 293 kts | 141° |
| 2026-05-05 21:19 | -14.78357 | -70.69489 | 30043 ft | 293 kts | 140° |
| 2026-05-05 21:19 | -14.79974 | -70.68208 | 30041 ft | 293 kts | 141° |
| 2026-05-05 21:19 | -14.81593 | -70.66927 | 30041 ft | 293 kts | 141° |
| 2026-05-05 21:20 | -14.83211 | -70.65646 | 30042 ft | 293 kts | 141° |
| 2026-05-05 21:20 | -14.84830 | -70.64364 | 30044 ft | 293 kts | 141° |
| 2026-05-05 21:20 | -14.86451 | -70.63080 | 30043 ft | 293 kts | 141° |
| 2026-05-05 21:20 | -14.88071 | -70.61796 | 30045 ft | 294 kts | 141° |
| 2026-05-05 21:21 | -14.89671 | -70.60529 | 30033 ft | 294 kts | 141° |
| 2026-05-05 21:21 | -14.91292 | -70.59245 | 30033 ft | 294 kts | 141° |
| 2026-05-05 21:21 | -14.92915 | -70.57958 | 30045 ft | 294 kts | 141° |
| 2026-05-05 21:21 | -14.94536 | -70.56673 | 30046 ft | 294 kts | 141° |
| 2026-05-05 21:22 | -14.96156 | -70.55388 | 30046 ft | 294 kts | 141° |
| 2026-05-05 21:22 | -14.97780 | -70.54100 | 30045 ft | 294 kts | 141° |
| 2026-05-05 21:22 | -14.99401 | -70.52815 | 30046 ft | 294 kts | 141° |
| 2026-05-05 21:22 | -15.01021 | -70.51529 | 30046 ft | 293 kts | 141° |
| 2026-05-05 21:23 | -15.02640 | -70.50244 | 30046 ft | 294 kts | 141° |
| 2026-05-05 21:23 | -15.04260 | -70.48958 | 30045 ft | 293 kts | 141° |
| 2026-05-05 21:23 | -15.05879 | -70.47673 | 30064 ft | 293 kts | 141° |
| 2026-05-05 21:23 | -15.07499 | -70.46387 | 30043 ft | 293 kts | 141° |
| 2026-05-05 21:24 | -15.09116 | -70.45103 | 30043 ft | 293 kts | 141° |
| 2026-05-05 21:24 | -15.10734 | -70.43817 | 30043 ft | 293 kts | 141° |
| 2026-05-05 21:24 | -15.12354 | -70.42530 | 30038 ft | 294 kts | 141° |
| 2026-05-05 21:24 | -15.13974 | -70.41243 | 30038 ft | 294 kts | 141° |
| 2026-05-05 21:25 | -15.15594 | -70.39955 | 30039 ft | 294 kts | 141° |
| 2026-05-05 21:25 | -15.17214 | -70.38667 | 30040 ft | 294 kts | 141° |
| 2026-05-05 21:25 | -15.18836 | -70.37378 | 30053 ft | 294 kts | 141° |
| 2026-05-05 21:25 | -15.20455 | -70.36090 | 30053 ft | 293 kts | 141° |
| 2026-05-05 21:26 | -15.22074 | -70.34802 | 30052 ft | 293 kts | 141° |
| 2026-05-05 21:26 | -15.23693 | -70.33513 | 30026 ft | 294 kts | 141° |
| 2026-05-05 21:26 | -15.25317 | -70.32222 | 30026 ft | 294 kts | 141° |
| 2026-05-05 21:26 | -15.26938 | -70.30931 | 30268 ft | 294 kts | 141° |
| 2026-05-05 21:27 | -15.28560 | -70.29640 | 30313 ft | 294 kts | 141° |
| 2026-05-05 21:27 | -15.30182 | -70.28348 | 30355 ft | 294 kts | 141° |
| 2026-05-05 21:27 | -15.31805 | -70.27055 | 30400 ft | 295 kts | 141° |
| 2026-05-05 21:27 | -15.33407 | -70.25780 | 30442 ft | 294 kts | 141° |
| 2026-05-05 21:28 | -15.35031 | -70.24486 | 30485 ft | 294 kts | 141° |
| 2026-05-05 21:28 | -15.36649 | -70.23196 | 30528 ft | 294 kts | 141° |
| 2026-05-05 21:28 | -15.38270 | -70.21904 | 30571 ft | 294 kts | 141° |
| 2026-05-05 21:28 | -15.39892 | -70.20612 | 30597 ft | 294 kts | 141° |
| 2026-05-05 21:29 | -15.41512 | -70.19320 | 30594 ft | 294 kts | 141° |
| 2026-05-05 21:29 | -15.43132 | -70.18028 | 30593 ft | 294 kts | 141° |
| 2026-05-05 21:29 | -15.44756 | -70.16732 | 30591 ft | 295 kts | 141° |
| 2026-05-05 21:29 | -15.46337 | -70.15386 | 30588 ft | 293 kts | 132° |
| 2026-05-05 21:30 | -15.47556 | -70.13716 | 30023 ft | 290 kts | 117° |
| 2026-05-05 21:30 | -15.48544 | -70.11896 | 30024 ft | 290 kts | 117° |
| 2026-05-05 21:30 | -15.49535 | -70.10075 | 30027 ft | 291 kts | 117° |
| 2026-05-05 21:30 | -15.50532 | -70.08249 | 30027 ft | 291 kts | 117° |
| 2026-05-05 21:31 | -15.51528 | -70.06422 | 30030 ft | 292 kts | 117° |
| 2026-05-05 21:31 | -15.52525 | -70.04591 | 30030 ft | 292 kts | 117° |
| 2026-05-05 21:31 | -15.53522 | -70.02758 | 30033 ft | 292 kts | 117° |
| 2026-05-05 21:31 | -15.54519 | -70.00927 | 30038 ft | 292 kts | 117° |
| 2026-05-05 21:32 | -15.55519 | -69.99091 | 30038 ft | 292 kts | 117° |
| 2026-05-05 21:32 | -15.56505 | -69.97279 | 30040 ft | 292 kts | 117° |
| 2026-05-05 21:32 | -15.57503 | -69.95443 | 30043 ft | 292 kts | 117° |
| 2026-05-05 21:32 | -15.58502 | -69.93606 | 30040 ft | 292 kts | 117° |
| 2026-05-05 21:33 | -15.59501 | -69.91769 | 30052 ft | 292 kts | 117° |
| 2026-05-05 21:33 | -15.60500 | -69.89932 | 30050 ft | 293 kts | 117° |
| 2026-05-05 21:33 | -15.61499 | -69.88093 | 30050 ft | 292 kts | 117° |
| 2026-05-05 21:33 | -15.62496 | -69.86257 | 30044 ft | 292 kts | 117° |
| 2026-05-05 21:34 | -15.63495 | -69.84418 | 30044 ft | 293 kts | 117° |
| 2026-05-05 21:34 | -15.64495 | -69.82577 | 30044 ft | 293 kts | 117° |
| 2026-05-05 21:34 | -15.65496 | -69.80732 | 30039 ft | 293 kts | 117° |
| 2026-05-05 21:34 | -15.66497 | -69.78887 | 30054 ft | 293 kts | 117° |
| 2026-05-05 21:35 | -15.67498 | -69.77043 | 30055 ft | 294 kts | 117° |
| 2026-05-05 21:35 | -15.68500 | -69.75195 | 30056 ft | 294 kts | 117° |
| 2026-05-05 21:35 | -15.69502 | -69.73349 | 30055 ft | 293 kts | 117° |
| 2026-05-05 21:35 | -15.70164 | -69.72128 | 30054 ft | 293 kts | 117° |
| 2026-05-05 21:36 | -15.71503 | -69.69657 | 30061 ft | 293 kts | 117° |
| 2026-05-05 21:36 | -15.72164 | -69.68437 | 30063 ft | 293 kts | 117° |
| 2026-05-05 21:36 | -15.73165 | -69.66590 | 30063 ft | 293 kts | 117° |
| 2026-05-05 21:36 | -15.74164 | -69.64746 | 30064 ft | 294 kts | 117° |
| 2026-05-05 21:37 | -15.75166 | -69.62896 | 30065 ft | 294 kts | 117° |
| 2026-05-05 21:37 | -15.76165 | -69.61049 | 30064 ft | 294 kts | 117° |
| 2026-05-05 21:37 | -15.77167 | -69.59198 | 30063 ft | 294 kts | 117° |
| 2026-05-05 21:37 | -15.78167 | -69.57351 | 30063 ft | 294 kts | 117° |
| 2026-05-05 21:38 | -15.79168 | -69.55501 | 30062 ft | 294 kts | 117° |
| 2026-05-05 21:38 | -15.80167 | -69.53653 | 30064 ft | 294 kts | 117° |
| 2026-05-05 21:38 | -15.81169 | -69.51801 | 30062 ft | 294 kts | 117° |
| 2026-05-05 21:38 | -15.82169 | -69.49950 | 30060 ft | 294 kts | 117° |
| 2026-05-05 21:39 | -15.83171 | -69.48096 | 30061 ft | 295 kts | 117° |
| 2026-05-05 21:39 | -15.84175 | -69.46238 | 30060 ft | 295 kts | 117° |
| 2026-05-05 21:39 | -15.85178 | -69.44380 | 30062 ft | 295 kts | 117° |
| 2026-05-05 21:39 | -15.86182 | -69.42521 | 30062 ft | 295 kts | 117° |
| 2026-05-05 21:40 | -15.87185 | -69.40665 | 30061 ft | 295 kts | 117° |
| 2026-05-05 21:40 | -15.88188 | -69.38806 | 30059 ft | 295 kts | 117° |
| 2026-05-05 21:40 | -15.89179 | -69.36970 | 30059 ft | 295 kts | 117° |
| 2026-05-05 21:40 | -15.90181 | -69.35111 | 30059 ft | 295 kts | 117° |
| 2026-05-05 21:41 | -15.91184 | -69.33252 | 30058 ft | 295 kts | 117° |
| 2026-05-05 21:41 | -15.92187 | -69.31392 | 30057 ft | 295 kts | 117° |
| 2026-05-05 21:41 | -15.93292 | -69.29603 | 30058 ft | 294 kts | 125° |
| 2026-05-05 21:41 | -15.94518 | -69.27898 | 30058 ft | 295 kts | 125° |
| 2026-05-05 21:42 | -15.95738 | -69.26187 | 30059 ft | 295 kts | 125° |
| 2026-05-05 21:42 | -15.96955 | -69.24468 | 30055 ft | 295 kts | 125° |
| 2026-05-05 21:42 | -15.98173 | -69.22750 | 30057 ft | 296 kts | 125° |
| 2026-05-05 21:42 | -15.99394 | -69.21032 | 30057 ft | 296 kts | 125° |
| 2026-05-05 21:43 | -16.00617 | -69.19310 | 30056 ft | 296 kts | 125° |
| 2026-05-05 21:43 | -16.01838 | -69.17588 | 30051 ft | 296 kts | 125° |
| 2026-05-05 21:43 | -16.03066 | -69.15857 | 29876 ft | 301 kts | 125° |
| 2026-05-05 21:43 | -16.04314 | -69.14099 | 29561 ft | 303 kts | 125° |
| 2026-05-05 21:44 | -16.05567 | -69.12331 | 29241 ft | 304 kts | 125° |
| 2026-05-05 21:44 | -16.06827 | -69.10555 | 28939 ft | 306 kts | 125° |
| 2026-05-05 21:44 | -16.08090 | -69.08774 | 28636 ft | 306 kts | 125° |
| 2026-05-05 21:44 | -16.09355 | -69.06987 | 28344 ft | 307 kts | 125° |
| 2026-05-05 21:45 | -16.10622 | -69.05200 | 28050 ft | 307 kts | 125° |
| 2026-05-05 21:45 | -16.11890 | -69.03410 | 27736 ft | 307 kts | 125° |
| 2026-05-05 21:45 | -16.13152 | -69.01628 | 27446 ft | 304 kts | 125° |
| 2026-05-05 21:45 | -16.14396 | -68.99871 | 27152 ft | 300 kts | 125° |
| 2026-05-05 21:46 | -16.15626 | -68.98133 | 26854 ft | 297 kts | 125° |
| 2026-05-05 21:46 | -16.16845 | -68.96410 | 26564 ft | 294 kts | 125° |
| 2026-05-05 21:46 | -16.18054 | -68.94702 | 26279 ft | 292 kts | 125° |
| 2026-05-05 21:46 | -16.19257 | -68.93001 | 26002 ft | 291 kts | 125° |
| 2026-05-05 21:47 | -16.20456 | -68.91306 | 25721 ft | 290 kts | 125° |
| 2026-05-05 21:47 | -16.21651 | -68.89615 | 25445 ft | 289 kts | 124° |
| 2026-05-05 21:47 | -16.22840 | -68.87933 | 25158 ft | 288 kts | 125° |
| 2026-05-05 21:47 | -16.24024 | -68.86257 | 24886 ft | 287 kts | 125° |
| 2026-05-05 21:48 | -16.25201 | -68.84592 | 24627 ft | 285 kts | 124° |
| 2026-05-05 21:48 | -16.26359 | -68.82952 | 24367 ft | 285 kts | 124° |
| 2026-05-05 21:48 | -16.27530 | -68.81294 | 24105 ft | 284 kts | 124° |
| 2026-05-05 21:48 | -16.28696 | -68.79642 | 23846 ft | 283 kts | 124° |
| 2026-05-05 21:49 | -16.29860 | -68.77993 | 23586 ft | 283 kts | 124° |
| 2026-05-05 21:49 | -16.31023 | -68.76344 | 23283 ft | 283 kts | 124° |
| 2026-05-05 21:49 | -16.32185 | -68.74697 | 22968 ft | 282 kts | 125° |
| 2026-05-05 21:49 | -16.33346 | -68.73051 | 22670 ft | 282 kts | 125° |
| 2026-05-05 21:50 | -16.34505 | -68.71408 | 22363 ft | 282 kts | 125° |
| 2026-05-05 21:50 | -16.35662 | -68.69767 | 22064 ft | 281 kts | 125° |
| 2026-05-05 21:50 | -16.36819 | -68.68126 | 21769 ft | 281 kts | 125° |
| 2026-05-05 21:50 | -16.37972 | -68.66490 | 21478 ft | 280 kts | 125° |
| 2026-05-05 21:51 | -16.39129 | -68.64848 | 21117 ft | 282 kts | 125° |
| 2026-05-05 21:51 | -16.40292 | -68.63197 | 20739 ft | 283 kts | 125° |
| 2026-05-05 21:51 | -16.41454 | -68.61547 | 20370 ft | 282 kts | 125° |
| 2026-05-05 21:51 | -16.42611 | -68.59903 | 19997 ft | 281 kts | 125° |
| 2026-05-05 21:52 | -16.44908 | -68.56640 | 19286 ft | 274 kts | 125° |
| 2026-05-05 21:52 | -16.46016 | -68.55066 | 18905 ft | 266 kts | 125° |
| 2026-05-05 21:52 | -16.47093 | -68.53534 | 18544 ft | 259 kts | 125° |
| 2026-05-05 21:53 | -16.48048 | -68.51976 | 18165 ft | 253 kts | 113° |
| 2026-05-05 21:53 | -16.48543 | -68.50235 | 17757 ft | 249 kts | 97° |
| 2026-05-05 21:53 | -16.48543 | -68.48450 | 17359 ft | 246 kts | 81° |
| 2026-05-05 21:53 | -16.48154 | -68.46742 | 17008 ft | 237 kts | 83° |
| 2026-05-05 21:54 | -16.48391 | -68.45142 | 17023 ft | 216 kts | 114° |
| 2026-05-05 21:54 | -16.49050 | -68.43770 | 16676 ft | 214 kts | 114° |
| 2026-05-05 21:54 | -16.49596 | -68.42308 | 16634 ft | 214 kts | 107° |
| 2026-05-05 21:54 | -16.50021 | -68.40824 | 16314 ft | 212 kts | 105° |
| 2026-05-05 21:55 | -16.50425 | -68.39372 | 16001 ft | 211 kts | 105° |
| 2026-05-05 21:55 | -16.50749 | -68.37898 | 15689 ft | 207 kts | 93° |
| 2026-05-05 21:55 | -16.50784 | -68.36429 | 15506 ft | 199 kts | 90° |
| 2026-05-05 21:55 | -16.50830 | -68.35009 | 15349 ft | 192 kts | 92° |
| 2026-05-05 21:56 | -16.50873 | -68.33690 | 15200 ft | 172 kts | 91° |
| 2026-05-05 21:56 | -16.50908 | -68.32502 | 15070 ft | 157 kts | 91° |
| 2026-05-05 21:56 | -16.50943 | -68.31393 | 14945 ft | 149 kts | 91° |
| 2026-05-05 21:56 | -16.50979 | -68.30259 | 14838 ft | 168 kts | 90° |
| 2026-05-05 21:57 | -16.51019 | -68.28979 | 14698 ft | 178 kts | 91° |
| 2026-05-05 21:57 | -16.51060 | -68.27706 | 14539 ft | 173 kts | 91° |
| 2026-05-05 21:57 | -16.51099 | -68.26489 | 14357 ft | 162 kts | 91° |
| 2026-05-05 21:57 | -16.51133 | -68.25418 | 14199 ft | 131 kts | 92° |
| 2026-05-05 21:58 | -16.51161 | -68.24547 | 14063 ft | 121 kts | 94° |
| 2026-05-05 21:58 | -16.51189 | -68.23654 | 13791 ft | 125 kts | 93° |
| 2026-05-05 21:58 | -16.51209 | -68.22736 | 13533 ft | 129 kts | 94° |
| 2026-05-05 21:58 | -16.51245 | -68.21799 | 13288 ft | 129 kts | 95° |
| 2026-05-05 21:59 | -16.51275 | -68.20889 | 13166 ft | 121 kts | 95° |
| 2026-05-05 21:59 | -16.51307 | -68.20115 | 13171 ft | 89 kts | 90° |
| 2026-05-05 21:59 | -16.51323 | -68.19598 | 13210 ft | 54 kts | 92° |
| 2026-05-05 21:59 | -16.51334 | -68.19259 | 13221 ft | 44 kts | 91° |
| 2026-05-05 22:00 | -16.51345 | -68.18932 | 13236 ft | 46 kts | 91° |
| 2026-05-05 22:00 | -16.51356 | -68.18613 | 13251 ft | 34 kts | 90° |
| 2026-05-05 22:00 | -16.51350 | -68.18394 | 13264 ft | 25 kts | 80° |
| 2026-05-05 22:00 | -16.51314 | -68.18275 | 13270 ft | 16 kts | 66° |
| 2026-05-05 22:01 | -16.51261 | -68.18176 | 13277 ft | 16 kts | 54° |
| 2026-05-05 22:01 | -16.51179 | -68.18079 | 13282 ft | 20 kts | 46° |
| 2026-05-05 22:01 | -16.51089 | -68.17977 | 13287 ft | 20 kts | 47° |
| 2026-05-05 22:01 | -16.51032 | -68.17916 | 13290 ft | 7 kts | 47° |
| 2026-05-05 22:02 | -16.50987 | -68.17890 | 13291 ft | 10 kts | 333° |
| 2026-05-05 22:02 | -16.50901 | -68.17956 | 13285 ft | 15 kts | 348° |
| 2026-05-05 22:02 | -16.50775 | -68.17927 | 13261 ft | 29 kts | 37° |
| 2026-05-05 22:02 | -16.50626 | -68.17788 | 13287 ft | 23 kts | 43° |
| 2026-05-05 22:03 | -16.50474 | -68.17644 | 13297 ft | 24 kts | 44° |
| 2026-05-05 22:03 | -16.50445 | -68.17611 | 13305 ft | 0 kts | 54° |